Time;durP1;ratioP1;P1;durP2;ratioP2;P2;SDS_P1;SDS_P2;PMS_P1;PMS_P2;Temp;Humidity;BMP_temperature;BMP_pressure;BME280_temperature;BME280_humidity;BME280_pressure;Samples;Min_cycle;Max_cycle;Signal;HPM_P1;HPM_P2
2023/10/25 00:02:04;;;;;;;21.90;7.47;;;9.70;99.90;;;;;;4976973;28;20085;-84
2023/10/25 00:04:30;;;;;;;13.93;6.83;;;9.70;99.90;;;;;;4994781;28;20502;-85
2023/10/25 00:06:55;;;;;;;17.40;8.07;;;9.70;99.90;;;;;;4994011;28;20153;-84
2023/10/25 00:09:21;;;;;;;19.57;7.03;;;9.60;99.90;;;;;;4992990;28;20057;-85
2023/10/25 00:11:47;;;;;;;22.13;7.93;;;9.60;99.90;;;;;;4976789;28;20049;-85
2023/10/25 00:14:13;;;;;;;17.87;7.83;;;9.60;99.90;;;;;;4992721;28;20050;-85
2023/10/25 00:16:39;;;;;;;16.20;7.67;;;9.60;99.90;;;;;;4976755;28;20046;-85
2023/10/25 00:19:05;;;;;;;19.30;7.53;;;9.50;99.90;;;;;;4993199;28;20346;-85
2023/10/25 00:21:30;;;;;;;20.17;6.60;;;9.50;99.90;;;;;;4993504;28;20054;-85
2023/10/25 00:23:56;;;;;;;21.20;8.10;;;9.50;99.90;;;;;;4993657;28;20483;-85
2023/10/25 00:26:22;;;;;;;18.53;7.40;;;9.50;99.90;;;;;;4993885;28;20129;-85
2023/10/25 00:28:47;;;;;;;18.10;6.87;;;9.50;99.90;;;;;;4992871;28;20394;-85
2023/10/25 00:31:13;;;;;;;19.63;8.57;;;9.50;99.90;;;;;;4977109;28;20042;-86
2023/10/25 00:33:39;;;;;;;20.10;7.90;;;9.50;99.90;;;;;;4978362;28;20046;-86
2023/10/25 00:36:05;;;;;;;24.17;9.47;;;9.40;99.90;;;;;;4996073;28;20058;-85
2023/10/25 00:38:31;;;;;;;16.33;8.33;;;9.50;99.90;;;;;;4980161;28;20058;-86
2023/10/25 00:40:56;;;;;;;20.07;9.23;;;9.40;99.90;;;;;;4996569;28;20298;-86
2023/10/25 00:43:22;;;;;;;16.20;8.60;;;9.40;99.90;;;;;;4996312;28;20125;-85
2023/10/25 00:45:58;;;;;;;23.33;9.37;;;9.40;99.90;;;;;;4997020;28;20038;-86
2023/10/25 00:48:24;;;;;;;19.70;8.40;;;9.30;99.90;;;;;;4996738;28;20304;-85
2023/10/25 00:50:50;;;;;;;18.47;8.47;;;9.30;99.90;;;;;;4996396;28;20297;-85
2023/10/25 00:53:15;;;;;;;22.10;8.60;;;9.40;99.90;;;;;;4997231;28;20046;-85
2023/10/25 00:55:41;;;;;;;20.60;8.50;;;9.30;99.90;;;;;;4997381;28;20050;-84
2023/10/25 00:58:07;;;;;;;22.03;9.07;;;9.30;99.90;;;;;;4997490;28;20059;-84
2023/10/25 01:00:34;;;;;;;21.83;8.90;;;9.30;99.90;;;;;;4996057;28;20046;-83
2023/10/25 01:03:06;;;;;;;19.47;10.47;;;9.30;99.90;;;;;;4980600;28;20471;-83
2023/10/25 01:05:31;;;;;;;25.10;10.50;;;9.30;99.90;;;;;;4997750;28;20309;-83
2023/10/25 01:07:57;;;;;;;20.20;9.40;;;9.30;99.90;;;;;;4997176;28;20356;-83
2023/10/25 01:10:23;;;;;;;20.73;9.97;;;9.30;99.90;;;;;;4997303;28;20047;-83
2023/10/25 01:12:49;;;;;;;15.27;8.27;;;9.30;99.90;;;;;;4979680;28;20049;-83
2023/10/25 01:15:14;;;;;;;26.07;10.37;;;9.20;99.90;;;;;;4979792;28;20462;-83
2023/10/25 01:17:40;;;;;;;15.37;8.57;;;9.20;99.90;;;;;;4996625;28;20046;-83
2023/10/25 01:20:06;;;;;;;23.60;11.57;;;9.20;99.90;;;;;;4995864;28;20054;-83
2023/10/25 01:22:32;;;;;;;19.40;9.23;;;9.20;99.90;;;;;;4995870;28;20054;-83
2023/10/25 01:24:58;;;;;;;20.07;10.13;;;9.20;99.90;;;;;;4995844;28;20282;-83
2023/10/25 01:27:23;;;;;;;32.23;12.60;;;9.20;99.90;;;;;;4996687;28;20057;-83
2023/10/25 01:29:49;;;;;;;20.60;10.57;;;9.20;99.90;;;;;;4995668;28;20194;-83
2023/10/25 01:32:14;;;;;;;25.07;11.20;;;9.20;99.90;;;;;;4995581;28;20046;-83
2023/10/25 01:34:40;;;;;;;22.40;10.67;;;9.20;99.90;;;;;;4979814;28;20181;-83
2023/10/25 01:37:06;;;;;;;28.23;12.00;;;9.20;99.90;;;;;;4997070;28;20422;-83
2023/10/25 01:39:31;;;;;;;22.73;11.37;;;9.20;99.90;;;;;;4995222;28;20054;-83
2023/10/25 01:42:00;;;;;;;22.43;11.17;;;9.10;99.90;;;;;;4996933;28;20524;-84
2023/10/25 01:44:26;;;;;;;32.13;13.27;;;9.10;99.90;;;;;;4979095;28;20050;-83
2023/10/25 01:46:51;;;;;;;20.70;11.30;;;9.10;99.90;;;;;;4994171;28;20281;-83
2023/10/25 01:49:17;;;;;;;21.20;10.30;;;9.10;99.90;;;;;;4995492;28;20061;-84
2023/10/25 01:51:42;;;;;;;22.40;12.03;;;9.10;99.90;;;;;;4963337;28;20383;-84
2023/10/25 01:54:08;;;;;;;22.87;10.77;;;9.10;99.90;;;;;;4978518;28;20141;-84
2023/10/25 01:56:34;;;;;;;23.87;12.37;;;9.10;99.90;;;;;;4995308;28;20101;-84
2023/10/25 01:58:59;;;;;;;24.87;11.93;;;9.10;99.90;;;;;;4995162;28;20100;-84
2023/10/25 02:01:25;;;;;;;24.73;11.47;;;9.00;99.90;;;;;;4995829;28;20038;-84
2023/10/25 02:03:51;;;;;;;24.77;12.13;;;9.00;99.90;;;;;;4978821;28;20053;-84
2023/10/25 02:06:17;;;;;;;33.60;13.53;;;9.00;99.90;;;;;;4978663;28;20053;-84
2023/10/25 02:08:43;;;;;;;18.93;10.67;;;9.00;99.90;;;;;;4994733;28;20080;-84
2023/10/25 02:11:08;;;;;;;28.43;12.93;;;9.00;99.90;;;;;;4994904;28;20061;-84
2023/10/25 02:13:34;;;;;;;28.50;13.33;;;9.00;99.90;;;;;;4978456;28;20463;-84
2023/10/25 02:16:11;;;;;;;35.97;14.33;;;8.90;99.90;;;;;;4994777;28;20042;-84
2023/10/25 02:18:37;;;;;;;21.67;11.93;;;8.90;99.90;;;;;;4979438;28;20054;-83
2023/10/25 02:21:03;;;;;;;28.13;13.90;;;8.90;99.90;;;;;;4995007;28;20293;-83
2023/10/25 02:23:29;;;;;;;23.07;12.57;;;8.90;99.90;;;;;;4994497;28;20471;-83
2023/10/25 02:25:55;;;;;;;28.07;13.80;;;8.90;99.90;;;;;;4995683;28;20292;-83
2023/10/25 02:28:20;;;;;;;27.77;12.63;;;8.90;99.90;;;;;;4995343;28;20109;-83
2023/10/25 02:30:46;;;;;;;22.77;12.33;;;8.90;99.90;;;;;;4994257;28;20050;-84
2023/10/25 02:33:12;;;;;;;33.47;13.93;;;8.90;99.90;;;;;;4994321;28;20121;-83
2023/10/25 02:35:38;;;;;;;27.73;13.07;;;8.90;99.90;;;;;;4961611;28;20062;-84
2023/10/25 02:38:03;;;;;;;28.87;15.60;;;8.90;99.90;;;;;;4978180;28;20058;-84
2023/10/25 02:40:29;;;;;;;28.23;15.07;;;8.80;99.90;;;;;;4994622;28;20073;-83
2023/10/25 02:42:55;;;;;;;27.23;15.87;;;8.90;99.90;;;;;;4995387;28;20395;-84
2023/10/25 02:45:20;;;;;;;22.73;13.73;;;8.80;99.90;;;;;;4977834;28;20058;-84
2023/10/25 02:47:46;;;;;;;27.70;14.73;;;8.90;99.90;;;;;;4995286;28;20133;-83
2023/10/25 02:50:12;;;;;;;25.97;13.17;;;8.80;99.90;;;;;;4994190;28;20047;-84
2023/10/25 02:52:37;;;;;;;31.57;14.67;;;8.90;99.90;;;;;;4978649;28;20053;-84
2023/10/25 02:55:03;;;;;;;38.83;17.50;;;8.80;99.90;;;;;;4978664;28;20046;-83
2023/10/25 02:57:29;;;;;;;30.97;15.13;;;8.80;99.90;;;;;;4978506;28;20513;-83
2023/10/25 02:59:55;;;;;;;25.37;13.83;;;8.80;99.90;;;;;;4977634;28;20102;-84
2023/10/25 03:02:20;;;;;;;34.87;15.57;;;8.80;99.90;;;;;;4978100;28;20061;-84
2023/10/25 03:04:46;;;;;;;27.47;15.60;;;8.80;99.90;;;;;;4994943;28;20050;-83
2023/10/25 03:07:12;;;;;;;27.40;15.07;;;8.80;99.90;;;;;;4993966;28;20133;-83
2023/10/25 03:09:38;;;;;;;37.57;15.87;;;8.80;99.90;;;;;;4994278;28;20352;-83
2023/10/25 03:12:04;;;;;;;27.43;15.20;;;8.80;99.90;;;;;;4977510;28;20046;-83
2023/10/25 03:14:29;;;;;;;37.83;17.37;;;8.70;99.90;;;;;;4995323;28;20061;-83
2023/10/25 03:16:55;;;;;;;34.07;16.07;;;8.80;99.90;;;;;;4993907;28;20290;-83
2023/10/25 03:19:21;;;;;;;35.07;16.77;;;8.80;99.90;;;;;;4977605;28;20086;-83
2023/10/25 03:21:46;;;;;;;40.33;16.90;;;8.80;99.90;;;;;;4977405;28;20446;-83
2023/10/25 03:24:12;;;;;;;25.87;15.23;;;8.80;99.90;;;;;;4993632;28;20056;-83
2023/10/25 03:26:38;;;;;;;31.57;15.70;;;8.80;99.90;;;;;;4977378;28;20081;-83
2023/10/25 03:29:04;;;;;;;32.17;15.83;;;8.80;99.90;;;;;;4993516;28;20050;-83
2023/10/25 03:31:29;;;;;;;40.70;17.93;;;8.80;99.90;;;;;;4993203;28;20046;-83
2023/10/25 03:33:55;;;;;;;35.80;17.53;;;8.80;99.90;;;;;;4994589;28;20050;-83
2023/10/25 03:36:21;;;;;;;44.83;19.63;;;8.70;99.90;;;;;;4993267;28;20430;-83
2023/10/25 03:38:46;;;;;;;40.37;19.83;;;8.80;99.90;;;;;;4993124;28;20123;-83
2023/10/25 03:41:12;;;;;;;39.83;19.17;;;8.70;99.90;;;;;;4993144;28;20556;-82
2023/10/25 03:43:38;;;;;;;42.37;21.20;;;8.70;99.90;;;;;;4993427;28;20046;-82
2023/10/25 03:46:08;;;;;;;46.37;21.17;;;8.70;99.90;;;;;;4993996;28;20462;-83
2023/10/25 03:48:35;;;;;;;42.97;22.30;;;8.70;99.90;;;;;;4992938;28;20085;-84
2023/10/25 03:51:07;;;;;;;43.73;20.37;;;8.80;99.90;;;;;;4993256;28;20373;-83
2023/10/25 03:53:34;;;;;;;35.53;20.70;;;8.70;99.90;;;;;;4994105;28;20335;-84
2023/10/25 03:56:00;;;;;;;45.57;23.03;;;8.70;99.90;;;;;;4993159;28;20305;-83
2023/10/25 03:58:26;;;;;;;49.97;22.43;;;8.70;99.90;;;;;;4977125;28;20295;-83
2023/10/25 04:00:58;;;;;;;38.73;21.97;;;8.70;99.90;;;;;;4994211;28;20050;-83
2023/10/25 04:03:23;;;;;;;35.80;21.57;;;8.70;99.90;;;;;;4993179;28;20141;-83
2023/10/25 04:05:49;;;;;;;44.57;21.47;;;8.70;99.90;;;;;;4977189;28;20385;-83
2023/10/25 04:08:15;;;;;;;44.33;24.40;;;8.70;99.90;;;;;;4976703;28;20089;-83
2023/10/25 04:10:41;;;;;;;39.30;23.23;;;8.60;99.90;;;;;;4992785;28;20046;-82
2023/10/25 04:13:07;;;;;;;37.93;21.70;;;8.60;99.90;;;;;;4994652;28;20304;-83
2023/10/25 04:15:35;;;;;;;39.50;20.73;;;8.70;99.90;;;;;;4993111;28;20050;-82
2023/10/25 04:18:02;;;;;;;32.60;20.40;;;8.70;99.90;;;;;;4992907;28;20154;-82
2023/10/25 04:20:32;;;;;;;49.50;23.73;;;8.60;99.90;;;;;;4992928;28;20292;-83
2023/10/25 04:22:57;;;;;;;35.20;19.87;;;8.60;99.90;;;;;;4976717;28;20703;-82
2023/10/25 04:25:23;;;;;;;39.67;21.97;;;8.70;99.90;;;;;;4992804;28;20317;-82
2023/10/25 04:27:49;;;;;;;51.80;26.07;;;8.70;99.90;;;;;;4992719;28;20050;-83
2023/10/25 04:30:14;;;;;;;40.97;21.37;;;8.70;99.90;;;;;;4976705;28;20057;-83
2023/10/25 04:32:40;;;;;;;33.57;22.43;;;8.60;99.90;;;;;;4977194;28;20364;-83
2023/10/25 04:35:06;;;;;;;46.87;25.60;;;8.70;99.90;;;;;;4993626;28;20066;-82
2023/10/25 04:37:32;;;;;;;45.13;24.40;;;8.60;99.90;;;;;;4993220;28;20467;-83
2023/10/25 04:39:57;;;;;;;31.37;21.47;;;8.60;99.90;;;;;;4976571;28;20517;-83
2023/10/25 04:42:23;;;;;;;36.70;21.40;;;8.60;99.90;;;;;;4992511;28;20039;-83
2023/10/25 04:44:49;;;;;;;36.53;21.87;;;8.60;99.90;;;;;;4992732;28;20534;-83
2023/10/25 04:47:14;;;;;;;39.90;18.83;;;8.60;99.90;;;;;;4976465;28;20065;-83
2023/10/25 04:49:40;;;;;;;42.53;22.87;;;8.60;99.90;;;;;;4992558;28;20137;-83
2023/10/25 04:52:06;;;;;;;34.47;18.43;;;8.60;99.90;;;;;;4993157;28;20089;-83
2023/10/25 04:54:31;;;;;;;46.80;22.43;;;8.60;99.90;;;;;;4992322;28;20394;-83
2023/10/25 04:56:58;;;;;;;35.90;19.20;;;8.60;99.90;;;;;;4992406;28;20050;-83
2023/10/25 04:59:23;;;;;;;40.17;21.13;;;8.60;99.90;;;;;;4993359;28;20057;-83
2023/10/25 05:01:49;;;;;;;50.47;22.93;;;8.50;99.90;;;;;;4977143;28;20285;-83
2023/10/25 05:04:15;;;;;;;33.43;19.43;;;8.60;99.90;;;;;;4992565;28;20054;-83
2023/10/25 05:06:41;;;;;;;35.00;20.10;;;8.60;99.90;;;;;;4993423;28;20120;-83
2023/10/25 05:09:07;;;;;;;52.83;22.63;;;8.50;99.90;;;;;;4976553;28;20426;-83
2023/10/25 05:11:37;;;;;;;49.47;23.17;;;8.50;99.90;;;;;;4992390;28;20313;-83
2023/10/25 05:14:04;;;;;;;44.60;21.47;;;8.50;99.90;;;;;;4993465;28;20298;-83
2023/10/25 05:16:30;;;;;;;35.67;17.77;;;8.50;99.90;;;;;;4993421;28;20360;-83
2023/10/25 05:18:55;;;;;;;38.73;19.47;;;8.50;99.90;;;;;;4992337;28;20389;-83
2023/10/25 05:21:26;;;;;;;28.70;18.30;;;8.50;99.90;;;;;;4994708;28;20046;-83
2023/10/25 05:23:52;;;;;;;28.63;17.90;;;8.50;99.90;;;;;;4996548;28;20504;-84
2023/10/25 05:26:18;;;;;;;35.00;17.67;;;8.50;99.90;;;;;;4995581;28;20281;-83
2023/10/25 05:28:44;;;;;;;31.03;17.80;;;8.50;99.90;;;;;;4995651;28;20289;-83
2023/10/25 05:31:16;;;;;;;31.33;17.90;;;8.40;99.90;;;;;;4997160;28;20347;-83
2023/10/25 05:33:42;;;;;;;25.87;15.60;;;8.40;99.90;;;;;;4997376;28;20377;-83
2023/10/25 05:36:08;;;;;;;31.07;17.03;;;8.40;99.90;;;;;;4994969;28;20324;-83
2023/10/25 05:38:34;;;;;;;41.83;19.33;;;8.40;99.90;;;;;;4995389;28;20054;-83
2023/10/25 05:41:00;;;;;;;32.67;18.53;;;8.30;99.90;;;;;;4995225;28;20347;-83
2023/10/25 05:43:30;;;;;;;41.20;18.97;;;8.30;99.90;;;;;;4996276;28;20440;-83
2023/10/25 05:45:56;;;;;;;24.80;15.37;;;8.30;99.90;;;;;;4995442;28;20377;-83
2023/10/25 05:48:22;;;;;;;49.20;21.20;;;8.30;99.90;;;;;;4996149;28;20770;-83
2023/10/25 05:50:50;;;;;;;44.43;20.17;;;8.30;99.90;;;;;;4995887;28;20284;-83
2023/10/25 05:53:16;;;;;;;42.10;18.93;;;8.30;99.90;;;;;;4995171;28;20051;-83
2023/10/25 05:55:42;;;;;;;32.47;16.90;;;8.20;99.90;;;;;;4995573;28;20273;-83
2023/10/25 05:58:08;;;;;;;25.03;14.43;;;8.30;99.90;;;;;;4996252;28;20337;-83
2023/10/25 06:00:34;;;;;;;41.87;18.87;;;8.20;99.90;;;;;;4995243;28;20435;-83
2023/10/25 06:03:01;;;;;;;27.37;13.80;;;8.20;99.90;;;;;;4995899;28;20293;-82
2023/10/25 06:05:34;;;;;;;27.00;14.87;;;8.20;99.90;;;;;;4995348;28;20050;-83
2023/10/25 06:08:00;;;;;;;42.10;17.63;;;8.30;99.90;;;;;;4995771;28;20779;-82
2023/10/25 06:10:26;;;;;;;39.87;14.73;;;8.20;99.90;;;;;;4996795;28;20634;-83
2023/10/25 06:12:52;;;;;;;25.47;11.00;;;8.20;99.90;;;;;;4995826;28;20300;-83
2023/10/25 06:15:18;;;;;;;22.43;9.97;;;8.20;99.90;;;;;;4995868;28;20282;-83
2023/10/25 06:17:43;;;;;;;23.67;9.57;;;8.20;99.90;;;;;;4995105;28;20108;-83
2023/10/25 06:20:11;;;;;;;26.57;9.17;;;8.20;99.90;;;;;;4994789;28;20506;-83
2023/10/25 06:22:36;;;;;;;20.60;8.87;;;8.20;99.90;;;;;;4994751;28;20050;-83
2023/10/25 06:25:05;;;;;;;25.27;12.80;;;8.20;99.90;;;;;;4995019;28;20331;-83
2023/10/25 06:27:30;;;;;;;21.23;8.37;;;8.20;99.90;;;;;;4978250;28;20495;-83
2023/10/25 06:29:56;;;;;;;26.53;9.60;;;8.20;99.90;;;;;;4995405;28;20428;-83
2023/10/25 06:32:22;;;;;;;31.20;12.47;;;8.20;99.90;;;;;;4994105;28;20050;-83
2023/10/25 06:34:48;;;;;;;17.13;9.37;;;8.20;99.90;;;;;;4994320;28;20127;-83
2023/10/25 06:37:14;;;;;;;24.63;11.00;;;8.20;99.90;;;;;;4995476;28;20286;-83
2023/10/25 06:39:40;;;;;;;37.07;16.33;;;8.10;99.90;;;;;;4994416;28;20108;-82
2023/10/25 06:42:06;;;;;;;27.43;12.73;;;8.10;99.90;;;;;;4978204;28;20109;-82
2023/10/25 06:44:32;;;;;;;22.03;7.40;;;8.20;99.90;;;;;;4995368;28;20478;-82
2023/10/25 06:46:59;;;;;;;26.30;13.80;;;8.10;99.90;;;;;;4994330;28;20293;-83
2023/10/25 06:49:24;;;;;;;25.57;12.37;;;8.20;99.90;;;;;;4994257;28;20344;-83
2023/10/25 06:51:50;;;;;;;31.77;15.63;;;8.10;99.90;;;;;;4995136;28;20281;-83
2023/10/25 06:54:16;;;;;;;21.90;11.53;;;8.20;99.90;;;;;;4978556;28;20050;-83
2023/10/25 06:56:42;;;;;;;24.50;14.03;;;8.20;99.90;;;;;;4977994;28;20371;-83
2023/10/25 06:59:08;;;;;;;23.20;12.20;;;8.10;99.90;;;;;;4994120;28;20050;-83
2023/10/25 07:01:41;;;;;;;19.90;11.93;;;8.20;99.90;;;;;;4994372;28;20058;-83
2023/10/25 07:04:11;;;;;;;26.83;13.83;;;8.30;99.90;;;;;;4994808;28;20296;-83
2023/10/25 07:06:39;;;;;;;16.93;6.80;;;8.10;99.90;;;;;;4994773;28;20420;-83
2023/10/25 07:09:05;;;;;;;26.53;9.30;;;8.10;99.90;;;;;;4993609;28;20376;-82
2023/10/25 07:11:30;;;;;;;14.33;8.20;;;8.10;99.90;;;;;;4994662;28;20841;-82
2023/10/25 07:13:56;;;;;;;24.17;9.37;;;8.10;99.90;;;;;;4977441;28;20368;-83
2023/10/25 07:16:22;;;;;;;25.53;12.23;;;8.10;99.90;;;;;;4994544;28;20459;-83
2023/10/25 07:18:47;;;;;;;29.23;10.53;;;8.10;99.90;;;;;;4961778;28;20101;-82
2023/10/25 07:21:14;;;;;;;30.03;13.03;;;8.00;99.90;;;;;;4993607;28;20576;-82
2023/10/25 07:23:39;;;;;;;7.97;3.37;;;8.00;99.90;;;;;;4993526;28;20050;-86
2023/10/25 07:26:06;;;;;;;27.43;10.63;;;8.00;99.90;;;;;;4994283;28;20311;-86
2023/10/25 07:28:32;;;;;;;23.57;10.63;;;8.00;99.90;;;;;;4994068;28;20105;-86
2023/10/25 07:30:57;;;;;;;23.33;11.00;;;8.00;99.90;;;;;;4977061;28;20678;-87
2023/10/25 07:33:24;;;;;;;29.37;14.07;;;7.90;99.90;;;;;;4993351;28;20117;-87
2023/10/25 07:35:50;;;;;;;27.43;13.80;;;8.00;99.90;;;;;;4992931;28;20510;-87
2023/10/25 07:38:16;;;;;;;25.27;11.27;;;7.90;99.90;;;;;;4994406;28;20365;-75
2023/10/25 07:40:42;;;;;;;19.03;10.90;;;8.00;99.90;;;;;;4994314;28;20086;-81
2023/10/25 07:43:09;;;;;;;22.80;10.40;;;8.00;99.90;;;;;;4993654;28;20050;-80
2023/10/25 07:45:35;;;;;;;24.87;11.93;;;8.00;99.90;;;;;;4994262;28;20282;-80
2023/10/25 07:48:01;;;;;;;24.63;14.40;;;8.00;99.90;;;;;;4994265;28;20357;-80
2023/10/25 07:50:26;;;;;;;28.00;12.87;;;8.10;99.90;;;;;;4994772;28;20050;-80
2023/10/25 07:52:52;;;;;;;24.33;14.50;;;8.10;99.90;;;;;;4994117;28;20039;-79
2023/10/25 07:55:18;;;;;;;17.40;9.37;;;8.10;99.90;;;;;;4993189;28;20133;-79
2023/10/25 07:57:43;;;;;;;21.53;11.40;;;8.10;99.90;;;;;;4994133;28;20339;-79
2023/10/25 08:00:09;;;;;;;25.33;11.50;;;8.20;99.90;;;;;;4994059;28;20089;-79
2023/10/25 08:02:35;;;;;;;24.30;9.53;;;8.30;99.90;;;;;;4993030;28;20053;-79
2023/10/25 08:05:01;;;;;;;20.13;9.23;;;8.30;99.90;;;;;;4994035;28;20061;-82
2023/10/25 08:07:27;;;;;;;24.63;12.77;;;8.30;99.90;;;;;;4994023;28;20277;-79
2023/10/25 08:09:53;;;;;;;28.17;11.47;;;8.40;99.90;;;;;;4993003;28;20046;-79
2023/10/25 08:12:18;;;;;;;26.87;12.27;;;8.40;99.90;;;;;;4993886;28;20046;-79
2023/10/25 08:14:44;;;;;;;20.80;10.83;;;8.50;99.90;;;;;;4993941;28;20042;-79
2023/10/25 08:17:10;;;;;;;26.80;14.23;;;8.50;99.90;;;;;;4993863;28;20185;-80
2023/10/25 08:19:35;;;;;;;29.93;14.20;;;8.60;99.90;;;;;;4993906;28;20050;-79
2023/10/25 08:22:04;;;;;;;24.20;13.10;;;8.60;99.90;;;;;;4993837;28;20050;-80
2023/10/25 08:24:30;;;;;;;24.27;14.37;;;8.70;99.90;;;;;;4993844;28;20048;-79
2023/10/25 08:26:58;;;;;;;22.37;13.07;;;8.70;99.90;;;;;;4994262;28;20829;-80
2023/10/25 08:29:24;;;;;;;25.13;11.43;;;8.80;99.90;;;;;;4994835;28;20129;-81
2023/10/25 08:31:50;;;;;;;22.33;12.60;;;8.80;99.90;;;;;;4992807;28;20700;-82
2023/10/25 08:34:16;;;;;;;20.03;10.43;;;8.80;99.90;;;;;;4993647;28;20573;-82
2023/10/25 08:36:41;;;;;;;18.70;11.83;;;8.90;99.90;;;;;;4993241;28;20073;-81
2023/10/25 08:39:07;;;;;;;19.63;12.20;;;8.90;99.90;;;;;;4993853;28;20054;-81
2023/10/25 08:41:35;;;;;;;20.93;12.13;;;8.90;99.90;;;;;;4992827;28;20073;-81
2023/10/25 08:44:02;;;;;;;21.30;11.87;;;8.90;99.90;;;;;;4994075;28;20041;-81
2023/10/25 08:46:29;;;;;;;19.00;11.30;;;9.00;99.90;;;;;;4993706;28;20277;-81
2023/10/25 08:48:55;;;;;;;17.93;9.67;;;9.00;99.90;;;;;;4993983;28;20278;-80
2023/10/25 08:51:21;;;;;;;17.87;9.53;;;9.00;99.90;;;;;;4993363;28;20847;-82
2023/10/25 08:53:49;;;;;;;17.93;10.17;;;9.00;99.90;;;;;;4993530;28;20318;-80
2023/10/25 08:56:15;;;;;;;19.33;10.00;;;9.00;99.90;;;;;;4997315;28;20293;-81
2023/10/25 08:58:41;;;;;;;19.17;9.47;;;9.00;99.90;;;;;;4997348;28;20285;-85
2023/10/25 09:01:06;;;;;;;21.20;10.77;;;9.10;99.90;;;;;;4997021;28;20045;-83
2023/10/25 09:03:32;;;;;;;15.93;9.90;;;9.10;99.90;;;;;;4996956;28;20050;-77
2023/10/25 09:06:03;;;;;;;21.07;12.03;;;9.10;99.90;;;;;;4979658;28;20050;-82
2023/10/25 09:08:30;;;;;;;18.07;8.60;;;9.20;99.90;;;;;;4998017;28;20383;-85
2023/10/25 09:11:09;;;;;;;17.07;9.13;;;9.20;99.90;;;;;;4996110;28;20665;-84
2023/10/25 09:13:44;;;;;;;19.60;10.43;;;9.20;99.90;;;;;;4997004;28;20316;-82
2023/10/25 09:16:12;;;;;;;17.15;9.15;;;9.30;99.90;;;;;;4995754;28;20285;-81
2023/10/25 09:18:39;;;;;;;16.10;9.27;;;9.30;99.90;;;;;;4997213;28;20057;-81
2023/10/25 09:21:07;;;;;;;15.20;10.33;;;9.40;99.90;;;;;;4996892;28;20277;-82
2023/10/25 09:23:33;;;;;;;16.30;9.03;;;9.40;99.90;;;;;;4996901;28;20796;-81
2023/10/25 09:26:13;;;;;;;16.53;9.93;;;9.40;99.90;;;;;;4996865;28;20313;-82
2023/10/25 09:28:39;;;;;;;11.07;7.57;;;9.40;99.90;;;;;;4996816;28;20281;-81
2023/10/25 09:31:27;;;;;;;16.40;8.40;;;9.40;99.90;;;;;;4995793;28;20340;-82
2023/10/25 09:33:53;;;;;;;15.53;8.63;;;9.50;99.90;;;;;;4997455;28;20042;-81
2023/10/25 09:36:21;;;;;;;19.40;9.60;;;9.50;99.90;;;;;;4996783;28;20840;-82
2023/10/25 09:38:51;;;;;;;21.13;12.73;;;9.50;99.90;;;;;;4996606;28;20328;-81
2023/10/25 09:41:18;;;;;;;16.57;8.67;;;9.60;99.90;;;;;;4996540;28;20284;-82
2023/10/25 09:43:56;;;;;;;16.70;9.00;;;9.60;99.90;;;;;;4996472;28;20615;-81
2023/10/25 09:46:23;;;;;;;18.73;10.40;;;9.60;99.90;;;;;;4996217;28;20833;-81
2023/10/25 09:49:14;;;;;;;15.30;9.30;;;9.60;99.90;;;;;;4996163;28;20292;-81
2023/10/25 09:51:59;;;;;;;14.03;8.40;;;9.70;99.90;;;;;;4996989;28;20317;-81
2023/10/25 09:54:37;;;;;;;15.13;8.33;;;9.70;99.90;;;;;;4996371;28;20321;-81
2023/10/25 09:57:07;;;;;;;12.97;8.70;;;9.70;99.90;;;;;;4996319;28;20773;-82
2023/10/25 09:59:33;;;;;;;17.57;9.73;;;9.70;99.90;;;;;;4997081;28;20329;-81
2023/10/25 10:02:06;;;;;;;16.27;9.10;;;9.70;99.90;;;;;;4996249;28;20282;-81
2023/10/25 10:04:55;;;;;;;17.50;8.27;;;9.80;99.90;;;;;;4995907;28;20766;-81
2023/10/25 10:07:47;;;;;;;15.43;8.90;;;9.90;99.90;;;;;;4995529;28;20750;-81
2023/10/25 10:10:41;;;;;;;11.43;7.40;;;9.90;99.90;;;;;;4996629;28;20293;-82
2023/10/25 10:13:17;;;;;;;14.77;8.17;;;10.00;99.90;;;;;;4994170;28;20812;-82
2023/10/25 10:16:05;;;;;;;12.63;7.83;;;10.00;99.90;;;;;;4994668;28;20289;-81
2023/10/25 10:18:32;;;;;;;16.73;8.30;;;10.00;99.90;;;;;;4996175;28;20317;-81
2023/10/25 10:21:06;;;;;;;14.30;8.07;;;10.10;99.90;;;;;;4995854;28;20296;-81
2023/10/25 10:23:39;;;;;;;13.07;7.37;;;10.10;99.90;;;;;;4994907;28;20799;-81
2023/10/25 10:26:07;;;;;;;15.70;7.53;;;10.20;99.90;;;;;;4995812;28;20317;-81
2023/10/25 10:28:41;;;;;;;13.33;7.40;;;10.20;99.90;;;;;;4995815;28;20285;-82
2023/10/25 10:31:08;;;;;;;12.13;7.70;;;10.20;99.90;;;;;;4995635;28;20304;-81
2023/10/25 10:33:45;;;;;;;12.87;7.87;;;10.30;99.90;;;;;;4995603;28;20305;-82
2023/10/25 10:36:24;;;;;;;12.20;7.90;;;10.30;99.90;;;;;;4994491;28;20701;-82
2023/10/25 10:39:16;;;;;;;15.17;7.87;;;10.30;99.90;;;;;;4995692;28;20280;-86
2023/10/25 10:41:43;;;;;;;16.50;8.30;;;10.30;99.90;;;;;;4995542;28;20308;-76
2023/10/25 10:44:11;;;;;;;15.10;6.87;;;10.40;99.90;;;;;;4995479;28;20274;-79
2023/10/25 10:46:53;;;;;;;14.57;8.07;;;10.40;99.90;;;;;;4995422;28;20761;-77
2023/10/25 10:49:26;;;;;;;16.37;8.30;;;10.40;99.90;;;;;;4995933;28;20292;-77
2023/10/25 10:51:52;;;;;;;12.27;7.40;;;10.50;99.90;;;;;;4978743;28;20285;-78
2023/10/25 10:54:18;;;;;;;18.53;8.30;;;10.50;99.90;;;;;;4993957;28;20785;-78
2023/10/25 10:56:43;;;;;;;13.93;8.03;;;10.50;99.90;;;;;;4995183;28;20286;-77
2023/10/25 10:59:09;;;;;;;12.57;7.73;;;10.50;99.90;;;;;;4995161;28;20050;-76
2023/10/25 11:01:35;;;;;;;10.13;7.07;;;10.50;99.90;;;;;;4995066;28;20065;-76
2023/10/25 11:04:01;;;;;;;14.70;7.00;;;10.60;99.90;;;;;;4995281;28;20545;-78
2023/10/25 11:06:27;;;;;;;16.10;9.20;;;10.60;99.90;;;;;;4994206;28;20494;-79
2023/10/25 11:08:53;;;;;;;11.17;7.37;;;10.70;99.90;;;;;;4994058;28;20286;-78
2023/10/25 11:11:22;;;;;;;18.23;8.33;;;10.70;99.90;;;;;;4995056;28;20140;-79
2023/10/25 11:13:51;;;;;;;12.67;7.27;;;10.70;99.90;;;;;;4993759;28;20305;-76
2023/10/25 11:16:17;;;;;;;15.50;8.50;;;10.70;99.90;;;;;;4994829;28;20282;-77
2023/10/25 11:18:43;;;;;;;14.37;8.50;;;10.70;99.90;;;;;;4994643;28;20293;-77
2023/10/25 11:21:11;;;;;;;15.60;9.03;;;10.70;99.90;;;;;;4994779;28;20287;-78
2023/10/25 11:23:36;;;;;;;11.93;8.13;;;10.80;99.90;;;;;;4977517;28;20305;-77
2023/10/25 11:26:04;;;;;;;13.87;8.63;;;10.80;99.90;;;;;;4994688;28;20285;-81
2023/10/25 11:28:30;;;;;;;14.97;9.17;;;10.80;99.90;;;;;;4993659;28;20050;-83
2023/10/25 11:31:01;;;;;;;14.27;8.53;;;10.80;99.90;;;;;;4994591;28;20344;-82
2023/10/25 11:33:27;;;;;;;17.30;8.73;;;10.80;99.90;;;;;;4994518;28;20470;-82
2023/10/25 11:35:54;;;;;;;16.10;9.60;;;10.90;99.90;;;;;;4993339;28;20289;-83
2023/10/25 11:38:20;;;;;;;17.10;9.40;;;10.90;99.90;;;;;;4993541;28;20054;-81
2023/10/25 11:40:46;;;;;;;13.50;7.97;;;10.90;99.90;;;;;;4994166;28;20289;-82
2023/10/25 11:43:13;;;;;;;16.10;8.53;;;10.90;99.90;;;;;;4977474;28;20054;-84
2023/10/25 11:45:40;;;;;;;12.43;8.10;;;11.00;99.90;;;;;;4993398;28;20297;-84
2023/10/25 11:48:07;;;;;;;18.93;9.63;;;11.00;99.90;;;;;;4977921;28;20457;-83
2023/10/25 11:50:33;;;;;;;14.63;7.93;;;11.00;99.90;;;;;;4993307;28;20439;-84
2023/10/25 11:52:59;;;;;;;15.53;8.20;;;11.00;99.90;;;;;;4994174;28;20337;-84
2023/10/25 11:55:27;;;;;;;14.23;8.37;;;11.20;99.90;;;;;;4993576;28;20384;-81
2023/10/25 11:57:53;;;;;;;15.80;8.80;;;11.20;99.90;;;;;;4993288;28;20054;-75
2023/10/25 12:00:20;;;;;;;13.57;8.60;;;11.20;99.90;;;;;;4994121;28;20281;-80
2023/10/25 12:02:45;;;;;;;15.70;8.50;;;11.20;99.90;;;;;;4994223;28;20273;-83
2023/10/25 12:05:12;;;;;;;11.63;7.87;;;11.30;99.90;;;;;;4992895;28;20393;-81
2023/10/25 12:07:37;;;;;;;15.67;9.33;;;11.30;99.90;;;;;;4992809;28;20109;-81
2023/10/25 12:10:07;;;;;;;13.90;8.40;;;11.30;99.90;;;;;;4977079;28;20321;-81
2023/10/25 12:12:33;;;;;;;16.93;8.73;;;11.30;99.90;;;;;;4993992;28;20057;-83
2023/10/25 12:14:59;;;;;;;13.80;8.57;;;11.30;99.90;;;;;;4993334;28;20669;-78
2023/10/25 12:17:24;;;;;;;16.50;7.90;;;11.40;99.90;;;;;;4994552;28;20377;-82
2023/10/25 12:19:51;;;;;;;14.17;7.40;;;11.40;99.90;;;;;;4976816;28;20061;-86
2023/10/25 12:22:18;;;;;;;14.73;8.03;;;11.40;99.90;;;;;;4994003;28;20050;-83
2023/10/25 12:24:48;;;;;;;12.10;7.00;;;11.40;99.90;;;;;;4994159;28;20292;-82
2023/10/25 12:27:14;;;;;;;18.13;8.57;;;11.40;99.90;;;;;;4993849;28;20765;-81
2023/10/25 12:29:40;;;;;;;16.47;7.53;;;11.30;99.90;;;;;;4994951;28;20613;-81
2023/10/25 12:32:06;;;;;;;14.97;8.40;;;11.30;99.90;;;;;;4997900;28;20356;-79
2023/10/25 12:34:32;;;;;;;17.17;6.77;;;11.30;99.90;;;;;;4997605;28;20046;-80
2023/10/25 12:36:58;;;;;;;12.77;6.97;;;11.30;99.90;;;;;;4980540;28;20321;-80
2023/10/25 12:39:24;;;;;;;14.70;8.93;;;11.20;99.90;;;;;;4997413;28;20788;-81